sensor_id;sensor_type;location;lat;lon;timestamp;pressure;altitude;pressure_sealevel;temperature;humidity
49473;BME280;73594;50.944;6.950;2023-12-20T00:00:56;101048.31;;;6.94;100.00
49473;BME280;73594;50.944;6.950;2023-12-20T00:03:21;101053.69;;;6.94;100.00
49473;BME280;73594;50.944;6.950;2023-12-20T00:05:47;101059.06;;;6.94;100.00
49473;BME280;73594;50.944;6.950;2023-12-20T00:08:12;101052.88;;;6.94;100.00
49473;BME280;73594;50.944;6.950;2023-12-20T00:10:38;101065.25;;;6.95;100.00
49473;BME280;73594;50.944;6.950;2023-12-20T00:13:03;101054.50;;;6.95;100.00
49473;BME280;73594;50.944;6.950;2023-12-20T00:15:29;101059.06;;;6.94;100.00
49473;BME280;73594;50.944;6.950;2023-12-20T00:17:54;101051.59;;;6.96;100.00
49473;BME280;73594;50.944;6.950;2023-12-20T00:20:19;101054.28;;;6.96;100.00
49473;BME280;73594;50.944;6.950;2023-12-20T00:22:45;101066.91;;;6.96;100.00
49473;BME280;73594;50.944;6.950;2023-12-20T00:25:10;101063.16;;;6.97;100.00
49473;BME280;73594;50.944;6.950;2023-12-20T00:27:36;101058.84;;;6.96;100.00
49473;BME280;73594;50.944;6.950;2023-12-20T00:30:01;101066.91;;;6.96;100.00
49473;BME280;73594;50.944;6.950;2023-12-20T00:32:26;101065.84;;;6.97;100.00
49473;BME280;73594;50.944;6.950;2023-12-20T00:34:52;101076.59;;;6.97;100.00
49473;BME280;73594;50.944;6.950;2023-12-20T00:37:18;101066.91;;;6.96;100.00
49473;BME280;73594;50.944;6.950;2023-12-20T00:39:43;101072.72;;;6.93;100.00
49473;BME280;73594;50.944;6.950;2023-12-20T00:42:09;101068.84;;;6.88;100.00
49473;BME280;73594;50.944;6.950;2023-12-20T00:44:34;101074.22;;;6.88;100.00
49473;BME280;73594;50.944;6.950;2023-12-20T00:46:59;101076.31;;;6.86;100.00
49473;BME280;73594;50.944;6.950;2023-12-20T00:49:25;101082.72;;;6.85;100.00
49473;BME280;73594;50.944;6.950;2023-12-20T00:51:50;101083.78;;;6.84;100.00
49473;BME280;73594;50.944;6.950;2023-12-20T00:54:17;101098.84;;;6.85;100.00
49473;BME280;73594;50.944;6.950;2023-12-20T00:56:43;101095.34;;;6.85;100.00
49473;BME280;73594;50.944;6.950;2023-12-20T00:59:09;101091.63;;;6.86;100.00
49473;BME280;73594;50.944;6.950;2023-12-20T01:01:35;101080.88;;;6.86;100.00
49473;BME280;73594;50.944;6.950;2023-12-20T01:04:00;101091.63;;;6.86;100.00
49473;BME280;73594;50.944;6.950;2023-12-20T01:06:25;101082.72;;;6.85;100.00
49473;BME280;73594;50.944;6.950;2023-12-20T01:08:51;101084.81;;;6.83;100.00
49473;BME280;73594;50.944;6.950;2023-12-20T01:11:16;101092.28;;;6.81;100.00
49473;BME280;73594;50.944;6.950;2023-12-20T01:13:41;101084.91;;;6.77;100.00
49473;BME280;73594;50.944;6.950;2023-12-20T01:16:10;101095.06;;;6.75;100.00
49473;BME280;73594;50.944;6.950;2023-12-20T01:18:35;101089.53;;;6.70;100.00
49473;BME280;73594;50.944;6.950;2023-12-20T01:21:02;101093.06;;;6.64;100.00
49473;BME280;73594;50.944;6.950;2023-12-20T01:23:28;101091.66;;;6.61;100.00
49473;BME280;73594;50.944;6.950;2023-12-20T01:25:53;101089.56;;;6.63;100.00
49473;BME280;73594;50.944;6.950;2023-12-20T01:28:19;101091.44;;;6.63;100.00
49473;BME280;73594;50.944;6.950;2023-12-20T01:30:44;101098.66;;;6.62;100.00
49473;BME280;73594;50.944;6.950;2023-12-20T01:33:10;101099.94;;;6.59;100.00
49473;BME280;73594;50.944;6.950;2023-12-20T01:35:35;101105.31;;;6.59;100.00
49473;BME280;73594;50.944;6.950;2023-12-20T01:38:00;101104.25;;;6.61;100.00
49473;BME280;73594;50.944;6.950;2023-12-20T01:40:26;101103.44;;;6.60;100.00
49473;BME280;73594;50.944;6.950;2023-12-20T01:43:02;101111.50;;;6.60;100.00
49473;BME280;73594;50.944;6.950;2023-12-20T01:45:28;101118.75;;;6.59;100.00
49473;BME280;73594;50.944;6.950;2023-12-20T01:47:55;101126.56;;;6.61;100.00
49473;BME280;73594;50.944;6.950;2023-12-20T01:50:21;101108.59;;;6.62;100.00
49473;BME280;73594;50.944;6.950;2023-12-20T01:52:47;101122.84;;;6.62;100.00
49473;BME280;73594;50.944;6.950;2023-12-20T01:55:13;101132.78;;;6.62;100.00
49473;BME280;73594;50.944;6.950;2023-12-20T01:57:41;101133.81;;;6.61;100.00
49473;BME280;73594;50.944;6.950;2023-12-20T02:00:09;101136.50;;;6.61;100.00
49473;BME280;73594;50.944;6.950;2023-12-20T02:02:37;101136.34;;;6.55;100.00
49473;BME280;73594;50.944;6.950;2023-12-20T02:05:05;101131.63;;;6.51;100.00
49473;BME280;73594;50.944;6.950;2023-12-20T02:07:30;101134.75;;;6.48;100.00
49473;BME280;73594;50.944;6.950;2023-12-20T02:09:56;101138.34;;;6.42;100.00
49473;BME280;73594;50.944;6.950;2023-12-20T02:12:21;101143.53;;;6.37;100.00
49473;BME280;73594;50.944;6.950;2023-12-20T02:14:47;101138.41;;;6.28;100.00
49473;BME280;73594;50.944;6.950;2023-12-20T02:17:13;101139.72;;;6.19;100.00
49473;BME280;73594;50.944;6.950;2023-12-20T02:19:38;101150.53;;;6.13;100.00
49473;BME280;73594;50.944;6.950;2023-12-20T02:22:10;101148.09;;;6.05;100.00
49473;BME280;73594;50.944;6.950;2023-12-20T02:24:36;101162.63;;;5.97;100.00
49473;BME280;73594;50.944;6.950;2023-12-20T02:27:01;101161.38;;;5.93;100.00
49473;BME280;73594;50.944;6.950;2023-12-20T02:29:27;101155.19;;;5.86;100.00
49473;BME280;73594;50.944;6.950;2023-12-20T02:31:52;101162.03;;;5.82;100.00
49473;BME280;73594;50.944;6.950;2023-12-20T02:34:17;101162.91;;;5.76;100.00
49473;BME280;73594;50.944;6.950;2023-12-20T02:36:42;101159.44;;;5.69;100.00
49473;BME280;73594;50.944;6.950;2023-12-20T02:39:08;101170.38;;;5.67;100.00
49473;BME280;73594;50.944;6.950;2023-12-20T02:41:33;101173.28;;;5.65;100.00
49473;BME280;73594;50.944;6.950;2023-12-20T02:43:58;101163.56;;;5.64;100.00
49473;BME280;73594;50.944;6.950;2023-12-20T02:46:24;101181.75;;;5.62;100.00
49473;BME280;73594;50.944;6.950;2023-12-20T02:48:49;101181.13;;;5.60;100.00
49473;BME280;73594;50.944;6.950;2023-12-20T02:51:15;101173.50;;;5.57;100.00
49473;BME280;73594;50.944;6.950;2023-12-20T02:53:40;101179.06;;;5.56;100.00
49473;BME280;73594;50.944;6.950;2023-12-20T02:56:06;101182.19;;;5.53;100.00
49473;BME280;73594;50.944;6.950;2023-12-20T02:58:31;101176.59;;;5.54;100.00
49473;BME280;73594;50.944;6.950;2023-12-20T03:00:56;101167.13;;;5.52;100.00
49473;BME280;73594;50.944;6.950;2023-12-20T03:03:22;101177.03;;;5.51;100.00
49473;BME280;73594;50.944;6.950;2023-12-20T03:05:47;101182.38;;;5.51;100.00
49473;BME280;73594;50.944;6.950;2023-12-20T03:08:12;101182.38;;;5.51;100.00
49473;BME280;73594;50.944;6.950;2023-12-20T03:10:38;101180.31;;;5.53;100.00
49473;BME280;73594;50.944;6.950;2023-12-20T03:13:03;101181.34;;;5.52;100.00
49473;BME280;73594;50.944;6.950;2023-12-20T03:15:28;101167.13;;;5.52;100.00
49473;BME280;73594;50.944;6.950;2023-12-20T03:17:54;101165.47;;;5.51;100.00
49473;BME280;73594;50.944;6.950;2023-12-20T03:20:19;101174.34;;;5.51;100.00
49473;BME280;73594;50.944;6.950;2023-12-20T03:22:45;101172.69;;;5.50;100.00
49473;BME280;73594;50.944;6.950;2023-12-20T03:25:10;101177.03;;;5.51;100.00
49473;BME280;73594;50.944;6.950;2023-12-20T03:27:38;101167.94;;;5.52;100.00
49473;BME280;73594;50.944;6.950;2023-12-20T03:30:04;101170.63;;;5.52;100.00
49473;BME280;73594;50.944;6.950;2023-12-20T03:32:30;101170.63;;;5.52;100.00
49473;BME280;73594;50.944;6.950;2023-12-20T03:34:55;101176.16;;;5.57;100.00
49473;BME280;73594;50.944;6.950;2023-12-20T03:37:21;101166.47;;;5.56;100.00
49473;BME280;73594;50.944;6.950;2023-12-20T03:39:47;101169.16;;;5.56;100.00
49473;BME280;73594;50.944;6.950;2023-12-20T03:42:12;101170.63;;;5.59;100.00
49473;BME280;73594;50.944;6.950;2023-12-20T03:44:39;101160.72;;;5.59;100.00
49473;BME280;73594;50.944;6.950;2023-12-20T03:47:05;101170.41;;;5.60;100.00
49473;BME280;73594;50.944;6.950;2023-12-20T03:49:31;101164.22;;;5.60;100.00
49473;BME280;73594;50.944;6.950;2023-12-20T03:51:56;101162.16;;;5.62;100.00
49473;BME280;73594;50.944;6.950;2023-12-20T03:54:21;101166.69;;;5.61;100.00
49473;BME280;73594;50.944;6.950;2023-12-20T03:56:47;101154.72;;;5.64;100.00
49473;BME280;73594;50.944;6.950;2023-12-20T03:59:12;101157.00;;;5.60;100.00
49473;BME280;73594;50.944;6.950;2023-12-20T04:01:38;101157.59;;;5.62;100.00
49473;BME280;73594;50.944;6.950;2023-12-20T04:04:03;101154.09;;;5.62;100.00
49473;BME280;73594;50.944;6.950;2023-12-20T04:06:28;101156.78;;;5.62;100.00
49473;BME280;73594;50.944;6.950;2023-12-20T04:08:54;101156.78;;;5.62;100.00
49473;BME280;73594;50.944;6.950;2023-12-20T04:11:19;101151.84;;;5.59;100.00
49473;BME280;73594;50.944;6.950;2023-12-20T04:13:45;101160.50;;;5.61;100.00
49473;BME280;73594;50.944;6.950;2023-12-20T04:16:10;101162.97;;;5.62;100.00
49473;BME280;73594;50.944;6.950;2023-12-20T04:18:35;101156.34;;;5.65;100.00
49473;BME280;73594;50.944;6.950;2023-12-20T04:21:01;101153.66;;;5.65;100.00
49473;BME280;73594;50.944;6.950;2023-12-20T04:23:27;101161.72;;;5.65;100.00
49473;BME280;73594;50.944;6.950;2023-12-20T04:25:54;101152.25;;;5.62;100.00
49473;BME280;73594;50.944;6.950;2023-12-20T04:28:19;101152.25;;;5.62;100.00
49473;BME280;73594;50.944;6.950;2023-12-20T04:30:44;101159.25;;;5.63;100.00
49473;BME280;73594;50.944;6.950;2023-12-20T04:33:10;101167.28;;;5.63;100.00
49473;BME280;73594;50.944;6.950;2023-12-20T04:35:35;101164.19;;;5.67;100.00
49473;BME280;73594;50.944;6.950;2023-12-20T04:38:00;101158.22;;;5.64;100.00
49473;BME280;73594;50.944;6.950;2023-12-20T04:40:26;101158.84;;;5.60;100.00
49473;BME280;73594;50.944;6.950;2023-12-20T04:42:51;101167.31;;;5.57;100.00
49473;BME280;73594;50.944;6.950;2023-12-20T04:45:18;101169.16;;;5.56;100.00
49473;BME280;73594;50.944;6.950;2023-12-20T04:47:44;101167.31;;;5.57;100.00
49473;BME280;73594;50.944;6.950;2023-12-20T04:50:12;101184.84;;;5.53;100.00
49473;BME280;73594;50.944;6.950;2023-12-20T04:52:38;101183.44;;;5.50;100.00
49473;BME280;73594;50.944;6.950;2023-12-20T04:55:04;101175.38;;;5.50;100.00
49473;BME280;73594;50.944;6.950;2023-12-20T04:57:29;101178.28;;;5.49;100.00
49473;BME280;73594;50.944;6.950;2023-12-20T04:59:55;101181.78;;;5.49;100.00
49473;BME280;73594;50.944;6.950;2023-12-20T05:02:20;101170.63;;;5.52;100.00
49473;BME280;73594;50.944;6.950;2023-12-20T05:04:47;101172.28;;;5.53;100.00
49473;BME280;73594;50.944;6.950;2023-12-20T05:07:15;101174.34;;;5.51;100.00
49473;BME280;73594;50.944;6.950;2023-12-20T05:09:40;101171.25;;;5.48;100.00
49473;BME280;73594;50.944;6.950;2023-12-20T05:12:06;101164.69;;;5.44;100.00
49473;BME280;73594;50.944;6.950;2023-12-20T05:14:32;101163.69;;;5.38;100.00
49473;BME280;73594;50.944;6.950;2023-12-20T05:16:57;101167.59;;;5.36;100.00
49473;BME280;73594;50.944;6.950;2023-12-20T05:19:24;101176.91;;;5.33;100.00
49473;BME280;73594;50.944;6.950;2023-12-20T05:21:49;101181.66;;;5.31;100.00
49473;BME280;73594;50.944;6.950;2023-12-20T05:24:15;101175.47;;;5.30;100.00
49473;BME280;73594;50.944;6.950;2023-12-20T05:26:40;101186.19;;;5.30;100.00
49473;BME280;73594;50.944;6.950;2023-12-20T05:29:06;101181.66;;;5.31;100.00
49473;BME280;73594;50.944;6.950;2023-12-20T05:31:31;101176.28;;;5.31;100.00
49473;BME280;73594;50.944;6.950;2023-12-20T05:33:57;101180.81;;;5.30;100.00
49473;BME280;73594;50.944;6.950;2023-12-20T05:36:22;101177.31;;;5.30;100.00
49473;BME280;73594;50.944;6.950;2023-12-20T05:38:47;101178.34;;;5.29;100.00
49473;BME280;73594;50.944;6.950;2023-12-20T05:41:13;101182.06;;;5.28;100.00
49473;BME280;73594;50.944;6.950;2023-12-20T05:43:39;101181.47;;;5.26;100.00
49473;BME280;73594;50.944;6.950;2023-12-20T05:46:04;101175.50;;;5.24;100.00
49473;BME280;73594;50.944;6.950;2023-12-20T05:48:30;101186.22;;;5.24;100.00
49473;BME280;73594;50.944;6.950;2023-12-20T05:50:55;101172.81;;;5.24;100.00
49473;BME280;73594;50.944;6.950;2023-12-20T05:53:21;101170.13;;;5.24;100.00
49473;BME280;73594;50.944;6.950;2023-12-20T05:55:46;101170.94;;;5.24;100.00
49473;BME280;73594;50.944;6.950;2023-12-20T05:58:11;101176.94;;;5.26;100.00
49473;BME280;73594;50.944;6.950;2023-12-20T06:00:37;101177.94;;;5.32;100.00
49473;BME280;73594;50.944;6.950;2023-12-20T06:03:03;101177.94;;;5.32;100.00
49473;BME280;73594;50.944;6.950;2023-12-20T06:05:30;101164.53;;;5.32;100.00
49473;BME280;73594;50.944;6.950;2023-12-20T06:07:55;101166.38;;;5.31;100.00
49473;BME280;73594;50.944;6.950;2023-12-20T06:10:22;101169.28;;;5.30;100.00
49473;BME280;73594;50.944;6.950;2023-12-20T06:12:48;101177.09;;;5.31;100.00
49473;BME280;73594;50.944;6.950;2023-12-20T06:15:15;101168.84;;;5.33;100.00
49473;BME280;73594;50.944;6.950;2023-12-20T06:17:40;101177.50;;;5.35;100.00
49473;BME280;73594;50.944;6.950;2023-12-20T06:20:07;101180.19;;;5.35;100.00
49473;BME280;73594;50.944;6.950;2023-12-20T06:22:34;101172.16;;;5.35;100.00
49473;BME280;73594;50.944;6.950;2023-12-20T06:24:59;101172.97;;;5.36;100.00
49473;BME280;73594;50.944;6.950;2023-12-20T06:27:27;101181.00;;;5.36;100.00
49473;BME280;73594;50.944;6.950;2023-12-20T06:29:52;101183.47;;;5.37;100.00
49473;BME280;73594;50.944;6.950;2023-12-20T06:32:17;101183.88;;;5.41;100.00
49473;BME280;73594;50.944;6.950;2023-12-20T06:34:42;101180.38;;;5.40;100.00
49473;BME280;73594;50.944;6.950;2023-12-20T06:37:08;101178.91;;;5.44;100.00
49473;BME280;73594;50.944;6.950;2023-12-20T06:39:33;101190.25;;;5.46;100.00
49473;BME280;73594;50.944;6.950;2023-12-20T06:41:59;101190.25;;;5.46;100.00
49473;BME280;73594;50.944;6.950;2023-12-20T06:44:25;101189.81;;;5.49;100.00
49473;BME280;73594;50.944;6.950;2023-12-20T06:46:50;101181.56;;;5.51;100.00
49473;BME280;73594;50.944;6.950;2023-12-20T06:49:16;101186.94;;;5.51;100.00
49473;BME280;73594;50.944;6.950;2023-12-20T06:51:41;101192.91;;;5.53;100.00
49473;BME280;73594;50.944;6.950;2023-12-20T06:54:06;101189.78;;;5.56;100.00
49473;BME280;73594;50.944;6.950;2023-12-20T06:56:32;101185.47;;;5.55;100.00
49473;BME280;73594;50.944;6.950;2023-12-20T06:58:57;101190.22;;;5.59;100.00
49473;BME280;73594;50.944;6.950;2023-12-20T07:01:23;101198.06;;;5.61;100.00
49473;BME280;73594;50.944;6.950;2023-12-20T07:03:48;101196.19;;;5.61;100.00
49473;BME280;73594;50.944;6.950;2023-12-20T07:06:14;101197.41;;;5.65;100.00
49473;BME280;73594;50.944;6.950;2023-12-20T07:08:41;101189.38;;;5.65;100.00
49473;BME280;73594;50.944;6.950;2023-12-20T07:11:07;101192.88;;;5.66;100.00
49473;BME280;73594;50.944;6.950;2023-12-20T07:13:32;101183.78;;;5.67;100.00
49473;BME280;73594;50.944;6.950;2023-12-20T07:15:57;101179.03;;;5.69;100.00
49473;BME280;73594;50.944;6.950;2023-12-20T07:18:23;101188.50;;;5.72;100.00
49473;BME280;73594;50.944;6.950;2023-12-20T07:20:48;101191.19;;;5.72;100.00
49473;BME280;73594;50.944;6.950;2023-12-20T07:23:14;101198.41;;;5.71;100.00
49473;BME280;73594;50.944;6.950;2023-12-20T07:25:39;101192.00;;;5.72;100.00
49473;BME280;73594;50.944;6.950;2023-12-20T07:28:05;101192.63;;;5.74;100.00
49473;BME280;73594;50.944;6.950;2023-12-20T07:30:30;101189.09;;;5.74;100.00
49473;BME280;73594;50.944;6.950;2023-12-20T07:32:55;101190.75;;;5.75;100.00
49473;BME280;73594;50.944;6.950;2023-12-20T07:35:21;101193.00;;;5.78;100.00
49473;BME280;73594;50.944;6.950;2023-12-20T07:37:47;101192.56;;;5.81;100.00
49473;BME280;73594;50.944;6.950;2023-12-20T07:40:12;101185.56;;;5.80;100.00
49473;BME280;73594;50.944;6.950;2023-12-20T07:42:37;101182.06;;;5.79;100.00
49473;BME280;73594;50.944;6.950;2023-12-20T07:45:03;101182.28;;;5.78;100.00
49473;BME280;73594;50.944;6.950;2023-12-20T07:47:28;101197.94;;;5.81;100.00
49473;BME280;73594;50.944;6.950;2023-12-20T07:49:54;101190.13;;;5.79;100.00
49473;BME280;73594;50.944;6.950;2023-12-20T07:52:19;101190.72;;;5.81;100.00
49473;BME280;73594;50.944;6.950;2023-12-20T07:54:45;101194.22;;;5.82;100.00
49473;BME280;73594;50.944;6.950;2023-12-20T07:57:11;101197.13;;;5.80;100.00
49473;BME280;73594;50.944;6.950;2023-12-20T07:59:37;101192.56;;;5.81;100.00
49473;BME280;73594;50.944;6.950;2023-12-20T08:02:02;101197.91;;;5.87;100.00
49473;BME280;73594;50.944;6.950;2023-12-20T08:04:28;101190.88;;;6.00;100.00
49473;BME280;73594;50.944;6.950;2023-12-20T08:06:53;101195.84;;;5.96;100.00
49473;BME280;73594;50.944;6.950;2023-12-20T08:09:19;101197.91;;;5.94;100.00
49473;BME280;73594;50.944;6.950;2023-12-20T08:11:45;101199.97;;;5.92;100.00
49473;BME280;73594;50.944;6.950;2023-12-20T08:14:11;101192.97;;;5.91;100.00
49473;BME280;73594;50.944;6.950;2023-12-20T08:16:36;101199.97;;;5.92;100.00
49473;BME280;73594;50.944;6.950;2023-12-20T08:19:02;101190.88;;;5.93;100.00
49473;BME280;73594;50.944;6.950;2023-12-20T08:21:28;101196.47;;;5.91;100.00
49473;BME280;73594;50.944;6.950;2023-12-20T08:23:55;101207.41;;;5.90;100.00
49473;BME280;73594;50.944;6.950;2023-12-20T08:26:20;101212.78;;;5.90;100.00
49473;BME280;73594;50.944;6.950;2023-12-20T08:28:47;101198.72;;;5.88;100.00
49473;BME280;73594;50.944;6.950;2023-12-20T08:31:18;101199.56;;;5.88;100.00
49473;BME280;73594;50.944;6.950;2023-12-20T08:33:45;101210.72;;;5.92;100.00
49473;BME280;73594;50.944;6.950;2023-12-20T08:36:10;101208.25;;;5.90;100.00
49473;BME280;73594;50.944;6.950;2023-12-20T08:38:37;101195.84;;;5.89;100.00
49473;BME280;73594;50.944;6.950;2023-12-20T08:41:03;101196.69;;;5.90;100.00
49473;BME280;73594;50.944;6.950;2023-12-20T08:43:36;101209.06;;;5.91;100.00
49473;BME280;73594;50.944;6.950;2023-12-20T08:46:02;101212.34;;;5.93;100.00
49473;BME280;73594;50.944;6.950;2023-12-20T08:48:28;101206.16;;;5.99;100.00
49473;BME280;73594;50.944;6.950;2023-12-20T08:50:53;101218.72;;;6.05;100.00
49473;BME280;73594;50.944;6.950;2023-12-20T08:53:19;101209.66;;;6.00;100.00
49473;BME280;73594;50.944;6.950;2023-12-20T08:55:44;101208.41;;;6.02;100.00
49473;BME280;73594;50.944;6.950;2023-12-20T08:58:10;101220.78;;;6.03;100.00
49473;BME280;73594;50.944;6.950;2023-12-20T09:00:35;101218.31;;;6.02;100.00
49473;BME280;73594;50.944;6.950;2023-12-20T09:03:02;101212.34;;;6.00;100.00
49473;BME280;73594;50.944;6.950;2023-12-20T09:05:27;101219.34;;;6.01;100.00
49473;BME280;73594;50.944;6.950;2023-12-20T09:07:53;101219.56;;;5.99;100.00
49473;BME280;73594;50.944;6.950;2023-12-20T09:10:19;101218.53;;;6.00;100.00
49473;BME280;73594;50.944;6.950;2023-12-20T09:12:51;101225.75;;;6.00;100.00
49473;BME280;73594;50.944;6.950;2023-12-20T09:15:17;101233.00;;;5.99;100.00
49473;BME280;73594;50.944;6.950;2023-12-20T09:17:42;101214.41;;;5.98;100.00
49473;BME280;73594;50.944;6.950;2023-12-20T09:20:10;101221.44;;;5.99;100.00
49473;BME280;73594;50.944;6.950;2023-12-20T09:22:36;101205.53;;;5.97;100.00
49473;BME280;73594;50.944;6.950;2023-12-20T09:25:04;101199.13;;;5.98;100.00
49473;BME280;73594;50.944;6.950;2023-12-20T09:27:29;101214.59;;;6.03;100.00
49473;BME280;73594;50.944;6.950;2023-12-20T09:29:54;101209.00;;;6.04;100.00
49473;BME280;73594;50.944;6.950;2023-12-20T09:32:20;101203.84;;;6.03;100.00
49473;BME280;73594;50.944;6.950;2023-12-20T09:34:47;101210.66;;;6.05;100.00
49473;BME280;73594;50.944;6.950;2023-12-20T09:37:13;101212.09;;;6.08;100.00
49473;BME280;73594;50.944;6.950;2023-12-20T09:39:38;101211.88;;;6.09;99.96
49473;BME280;73594;50.944;6.950;2023-12-20T09:42:05;101204.41;;;6.11;100.00
49473;BME280;73594;50.944;6.950;2023-12-20T09:44:31;101194.13;;;6.08;99.65
49473;BME280;73594;50.944;6.950;2023-12-20T09:46:58;101192.44;;;6.14;100.00
49473;BME280;73594;50.944;6.950;2023-12-20T09:49:25;101192.59;;;6.19;99.50
49473;BME280;73594;50.944;6.950;2023-12-20T09:51:53;101190.72;;;6.19;99.12
49473;BME280;73594;50.944;6.950;2023-12-20T09:54:20;101190.28;;;6.22;99.15
49473;BME280;73594;50.944;6.950;2023-12-20T09:56:49;101190.28;;;6.22;99.68
49473;BME280;73594;50.944;6.950;2023-12-20T09:59:15;101188.44;;;6.23;99.56
49473;BME280;73594;50.944;6.950;2023-12-20T10:01:41;101201.22;;;6.27;98.80
49473;BME280;73594;50.944;6.950;2023-12-20T10:04:08;101192.53;;;6.25;99.33
49473;BME280;73594;50.944;6.950;2023-12-20T10:06:36;101196.06;;;6.26;99.50
49473;BME280;73594;50.944;6.950;2023-12-20T10:09:01;101206.78;;;6.26;99.38
49473;BME280;73594;50.944;6.950;2023-12-20T10:11:27;101204.94;;;6.26;98.87
49473;BME280;73594;50.944;6.950;2023-12-20T10:13:59;101196.28;;;6.24;98.70
49473;BME280;73594;50.944;6.950;2023-12-20T10:16:25;101197.47;;;6.28;99.17
49473;BME280;73594;50.944;6.950;2023-12-20T10:18:52;101185.53;;;6.24;98.76
49473;BME280;73594;50.944;6.950;2023-12-20T10:21:18;101188.59;;;6.28;99.35
49473;BME280;73594;50.944;6.950;2023-12-20T10:23:43;101187.78;;;6.27;98.99
49473;BME280;73594;50.944;6.950;2023-12-20T10:26:09;101185.28;;;6.33;98.56
49473;BME280;73594;50.944;6.950;2023-12-20T10:28:34;101168.38;;;6.32;98.12
49473;BME280;73594;50.944;6.950;2023-12-20T10:31:00;101174.34;;;6.34;98.19
49473;BME280;73594;50.944;6.950;2023-12-20T10:33:27;101175.75;;;6.37;97.97
49473;BME280;73594;50.944;6.950;2023-12-20T10:35:54;101165.63;;;6.39;97.96
49473;BME280;73594;50.944;6.950;2023-12-20T10:38:20;101167.72;;;6.37;97.18
49473;BME280;73594;50.944;6.950;2023-12-20T10:40:46;101172.84;;;6.38;98.12
49473;BME280;73594;50.944;6.950;2023-12-20T10:43:23;101162.34;;;6.37;97.25
49473;BME280;73594;50.944;6.950;2023-12-20T10:45:51;101168.31;;;6.39;97.00
49473;BME280;73594;50.944;6.950;2023-12-20T10:48:18;101161.28;;;6.38;97.26
49473;BME280;73594;50.944;6.950;2023-12-20T10:50:44;101153.84;;;6.40;97.13
49473;BME280;73594;50.944;6.950;2023-12-20T10:53:10;101151.75;;;6.42;97.77
49473;BME280;73594;50.944;6.950;2023-12-20T10:55:40;101154.66;;;6.40;97.03
49473;BME280;73594;50.944;6.950;2023-12-20T10:58:09;101153.84;;;6.40;97.74
49473;BME280;73594;50.944;6.950;2023-12-20T11:00:39;101149.28;;;6.40;97.88
49473;BME280;73594;50.944;6.950;2023-12-20T11:03:08;101160.84;;;6.41;97.71
49473;BME280;73594;50.944;6.950;2023-12-20T11:08:50;101157.56;;;6.39;97.37
49473;BME280;73594;50.944;6.950;2023-12-20T11:11:17;101159.44;;;6.38;98.18
49473;BME280;73594;50.944;6.950;2023-12-20T11:13:58;101167.03;;;6.41;97.56
49473;BME280;73594;50.944;6.950;2023-12-20T11:16:25;101159.81;;;6.42;97.33
49473;BME280;73594;50.944;6.950;2023-12-20T11:18:50;101155.25;;;6.42;97.50
49473;BME280;73594;50.944;6.950;2023-12-20T11:21:16;101157.50;;;6.45;98.05
49473;BME280;73594;50.944;6.950;2023-12-20T11:23:42;101160.41;;;6.44;97.46
49473;BME280;73594;50.944;6.950;2023-12-20T11:26:07;101164.91;;;6.50;97.59
49473;BME280;73594;50.944;6.950;2023-12-20T11:28:33;101146.09;;;6.50;97.03
49473;BME280;73594;50.944;6.950;2023-12-20T11:31:01;101150.22;;;6.52;97.33
49473;BME280;73594;50.944;6.950;2023-12-20T11:33:30;101147.91;;;6.56;97.01
49473;BME280;73594;50.944;6.950;2023-12-20T11:35:57;101131.56;;;6.57;96.84
49473;BME280;73594;50.944;6.950;2023-12-20T11:38:23;101138.38;;;6.60;96.54
49473;BME280;73594;50.944;6.950;2023-12-20T11:40:50;101130.91;;;6.62;96.32
49473;BME280;73594;50.944;6.950;2023-12-20T11:43:32;101115.56;;;6.69;96.56
49473;BME280;73594;50.944;6.950;2023-12-20T11:46:07;101125.44;;;6.75;96.02
49473;BME280;73594;50.944;6.950;2023-12-20T11:48:39;101126.47;;;6.74;95.65
49473;BME280;73594;50.944;6.950;2023-12-20T11:51:10;101127.50;;;6.73;95.57
49473;BME280;73594;50.944;6.950;2023-12-20T11:53:35;101115.13;;;6.72;95.81
49473;BME280;73594;50.944;6.950;2023-12-20T11:56:03;101123.78;;;6.74;96.21
49473;BME280;73594;50.944;6.950;2023-12-20T11:58:29;101114.69;;;6.75;95.58
49473;BME280;73594;50.944;6.950;2023-12-20T12:00:55;101114.22;;;6.78;95.48
49473;BME280;73594;50.944;6.950;2023-12-20T12:03:20;101121.69;;;6.76;95.35
49473;BME280;73594;50.944;6.950;2023-12-20T12:05:47;101134.53;;;6.74;95.34
49473;BME280;73594;50.944;6.950;2023-12-20T12:08:13;101118.63;;;6.73;95.33
49473;BME280;73594;50.944;6.950;2023-12-20T12:10:38;101115.72;;;6.74;96.20
49473;BME280;73594;50.944;6.950;2023-12-20T12:13:04;101111.03;;;6.70;95.82
49473;BME280;73594;50.944;6.950;2023-12-20T12:15:29;101113.91;;;6.68;95.97
49473;BME280;73594;50.944;6.950;2023-12-20T12:17:55;101111.22;;;6.68;95.85
49473;BME280;73594;50.944;6.950;2023-12-20T12:20:21;101106.88;;;6.67;96.23
49473;BME280;73594;50.944;6.950;2023-12-20T12:22:57;101102.34;;;6.68;96.29
49473;BME280;73594;50.944;6.950;2023-12-20T12:25:22;101106.88;;;6.67;96.39
49473;BME280;73594;50.944;6.950;2023-12-20T12:27:48;101088.72;;;6.69;96.39
49473;BME280;73594;50.944;6.950;2023-12-20T12:30:16;101079.41;;;6.65;96.69
49473;BME280;73594;50.944;6.950;2023-12-20T12:32:44;101081.06;;;6.66;97.18
49473;BME280;73594;50.944;6.950;2023-12-20T12:35:09;101083.34;;;6.69;97.05
49473;BME280;73594;50.944;6.950;2023-12-20T12:37:38;101075.28;;;6.69;96.75
49473;BME280;73594;50.944;6.950;2023-12-20T12:40:15;101078.34;;;6.73;96.94
49473;BME280;73594;50.944;6.950;2023-12-20T12:42:42;101075.19;;;6.76;96.76
49473;BME280;73594;50.944;6.950;2023-12-20T12:45:09;101065.34;;;6.70;96.48
49473;BME280;73594;50.944;6.950;2023-12-20T12:47:34;101067.81;;;6.71;96.73
49473;BME280;73594;50.944;6.950;2023-12-20T12:50:00;101059.31;;;6.74;96.97